Time;durP1;ratioP1;P1;durP2;ratioP2;P2;SDS_P1;SDS_P2;PMS_P1;PMS_P2;Temp;Humidity;BMP_temperature;BMP_pressure;BME280_temperature;BME280_humidity;BME280_pressure;Samples;Min_cycle;Max_cycle;Signal;HPM_P1;HPM_P2
2022/02/09 00:04:08;;;;;;;18.27;7.53;;;;;;;0.80;59.73;96177.56;5014472;28;20435;-76
2022/02/09 00:09:03;;;;;;;14.07;7.03;;;;;;;0.88;60.06;96171.78;5029027;28;20029;-76
2022/02/09 00:11:33;;;;;;;15.25;6.82;;;;;;;0.88;60.11;96174.41;5029082;28;20032;-77
2022/02/09 00:14:06;;;;;;;13.48;7.05;;;;;;;0.90;60.18;96175.19;5027722;28;20112;-77
2022/02/09 00:17:06;;;;;;;13.15;6.65;;;;;;;0.90;60.18;96175.19;5012664;28;20638;-75
2022/02/09 00:19:31;;;;;;;15.60;7.38;;;;;;;0.91;59.83;96189.22;5028829;28;20483;-76
2022/02/09 00:35:45;;;;;;;12.70;6.13;;;;;;;0.89;60.10;96191.13;5045700;28;20037;-77
2022/02/09 01:40:14;;;;;;;15.40;6.15;;;;;;;0.78;61.39;96176.78;5027632;28;20426;-77
2022/02/09 01:51:11;;;;;;;17.33;6.65;;;;;;;0.80;62.17;96177.56;5026336;28;20034;-75
2022/02/09 01:56:30;;;;;;;15.93;6.20;;;;;;;0.90;61.81;96175.19;5012420;28;20103;-76
2022/02/09 01:58:56;;;;;;;13.48;5.78;;;;;;;0.93;62.40;96176.75;5026204;28;20033;-76
2022/02/09 02:01:22;;;;;;;12.43;5.68;;;;;;;0.80;63.20;96174.91;5009399;28;20033;-76
2022/02/09 02:03:48;;;;;;;11.88;5.55;;;;;;;0.92;62.07;96175.06;5009167;28;20048;-76
2022/02/09 02:06:15;;;;;;;10.02;5.45;;;;;;;0.98;62.69;96179.97;5025753;28;20048;-77
2022/02/09 02:08:40;;;;;;;9.43;5.57;;;;;;;1.01;61.85;96179.75;5025181;28;20512;-75
2022/02/09 02:19:26;;;;;;;15.77;6.32;;;;;;;1.04;61.82;96181.34;5025198;28;20203;-76
2022/02/09 02:27:18;;;;;;;12.85;6.15;;;;;;;0.90;62.90;96206.00;5025231;28;20032;-77
2022/02/09 02:40:11;;;;;;;8.93;5.22;;;;;;;1.05;63.67;96206.84;5026119;28;20087;-77
2022/02/09 03:17:20;;;;;;;12.80;5.75;;;;;;;1.28;62.06;96226.47;5024579;28;20063;-75
2022/02/09 03:27:49;;;;;;;8.52;5.05;;;;;;;1.33;61.62;96224.38;5024409;28;20041;-76
2022/02/09 03:50:16;;;;;;;8.95;5.47;;;;;;;1.40;62.62;96208.97;5029013;28;20045;-77
2022/02/09 03:55:20;;;;;;;8.88;5.55;;;;;;;1.46;61.55;96213.00;5025568;28;20139;-77
2022/02/09 03:57:46;;;;;;;11.43;6.38;;;;;;;1.38;62.28;96213.50;5024300;28;20492;-77
2022/02/09 04:00:22;;;;;;;12.02;5.55;;;;;;;1.41;62.07;96210.66;5024205;28;20095;-76
2022/02/09 04:02:50;;;;;;;10.77;5.38;;;;;;;1.30;62.69;96210.53;5025454;28;20342;-77
2022/02/09 04:05:17;;;;;;;12.45;5.63;;;;;;;1.33;62.36;96216.47;5007720;28;20064;-77
2022/02/09 04:07:43;;;;;;;11.43;5.40;;;;;;;1.35;62.39;96213.72;5007979;28;20128;-76
2022/02/09 04:10:14;;;;;;;12.35;6.03;;;;;;;1.37;62.68;96221.53;5024617;28;20068;-76
2022/02/09 04:15:31;;;;;;;9.15;5.35;;;;;;;1.37;62.43;96213.63;5027500;28;20099;-77
2022/02/09 04:18:23;;;;;;;11.88;5.38;;;;;;;1.40;63.04;96224.84;5028933;28;20048;-77
2022/02/09 04:39:59;;;;;;;11.98;5.85;;;;;;;1.67;62.60;96223.09;5027337;28;20455;-76
2022/02/09 04:50:55;;;;;;;11.18;5.93;;;;;;;1.82;62.31;96206.19;5013266;28;20037;-76
2022/02/09 04:56:12;;;;;;;11.63;5.95;;;;;;;1.82;63.09;96211.50;5027452;28;20584;-77
2022/02/09 04:59:02;;;;;;;10.85;5.78;;;;;;;1.88;63.19;96222.63;5028080;28;20030;-76
2022/02/09 05:04:36;;;;;;;10.07;5.75;;;;;;;1.85;62.95;96216.56;5028078;28;20045;-77
2022/02/09 05:28:04;;;;;;;11.25;5.82;;;;;;;2.17;63.46;96235.69;5027963;28;20029;-77
2022/02/09 05:30:30;;;;;;;8.02;5.97;;;;;;;2.17;63.46;96233.03;5010349;28;20021;-75
2022/02/09 05:32:55;;;;;;;9.98;6.20;;;;;;;2.21;63.22;96243.28;5027355;28;20084;-75
2022/02/09 05:35:21;;;;;;;8.23;5.18;;;;;;;2.25;63.00;96237.78;5027615;28;20530;-77
2022/02/09 05:37:51;;;;;;;9.73;5.85;;;;;;;2.27;63.42;96247.34;5026903;28;20087;-77
2022/02/09 05:40:17;;;;;;;10.38;5.55;;;;;;;2.30;62.90;96243.63;5027415;28;20101;-78
2022/02/09 05:42:42;;;;;;;11.90;6.22;;;;;;;2.32;63.71;96253.16;5027101;28;20485;-77
2022/02/09 05:45:10;;;;;;;10.23;6.43;;;;;;;2.32;63.03;96258.44;5027460;28;20476;-78
2022/02/09 05:50:25;;;;;;;10.13;6.13;;;;;;;2.41;63.35;96261.41;5010653;28;20034;-77
2022/02/09 05:57:49;;;;;;;12.35;6.65;;;;;;;2.52;63.15;96263.31;5009286;28;20025;-76
2022/02/09 06:00:16;;;;;;;9.52;5.78;;;;;;;2.61;62.95;96269.78;5026954;28;20486;-76
2022/02/09 06:02:42;;;;;;;8.65;5.90;;;;;;;2.62;62.95;96274.13;5009342;28;20033;-76
2022/02/09 06:05:07;;;;;;;10.13;6.13;;;;;;;2.63;63.00;96281.13;5025548;28;20026;-76
2022/02/09 06:07:33;;;;;;;10.68;6.20;;;;;;;2.52;63.35;96269.47;5025415;28;20025;-77
2022/02/09 06:09:58;;;;;;;12.32;6.00;;;;;;;2.57;63.25;96277.94;5008993;28;20026;-76
2022/02/09 06:12:42;;;;;;;10.32;5.82;;;;;;;2.46;64.21;96281.34;5027029;28;20033;-76
2022/02/09 06:20:26;;;;;;;9.13;5.38;;;;;;;2.47;64.09;96282.16;5026517;28;20063;-77
2022/02/09 06:22:51;;;;;;;7.70;5.13;;;;;;;2.48;64.53;96281.25;5026697;28;20025;-77
2022/02/09 06:25:17;;;;;;;13.02;5.50;;;;;;;2.49;64.55;96290.88;5008921;28;20484;-76
2022/02/09 06:27:42;;;;;;;8.60;5.50;;;;;;;2.55;64.18;96294.88;5025368;28;20025;-78
2022/02/09 06:30:09;;;;;;;8.10;5.72;;;;;;;2.62;64.47;96303.25;5025051;28;20030;-77
2022/02/09 06:32:34;;;;;;;10.23;6.10;;;;;;;2.65;63.95;96303.03;5025228;28;20029;-76
2022/02/09 06:35:00;;;;;;;9.75;6.72;;;;;;;2.61;64.50;96304.22;5025758;28;20413;-78
2022/02/09 06:37:38;;;;;;;11.45;7.50;;;;;;;2.51;64.30;96302.22;5008798;28;20033;-77
2022/02/09 06:40:04;;;;;;;19.27;8.88;;;;;;;2.56;63.93;96300.06;5026292;28;20030;-76
2022/02/09 06:42:31;;;;;;;16.95;7.88;;;;;;;2.61;63.82;96307.72;5024757;28;20490;-76
2022/02/09 06:45:01;;;;;;;12.98;6.97;;;;;;;2.61;64.03;96306.88;5008569;28;20081;-76
2022/02/09 06:47:28;;;;;;;11.63;6.35;;;;;;;2.66;63.63;96310.06;5009396;28;20017;-76
2022/02/09 06:49:59;;;;;;;14.63;6.60;;;;;;;2.64;63.62;96314.59;5026061;28;20034;-76
2022/02/09 06:52:25;;;;;;;12.55;7.32;;;;;;;2.66;63.72;96320.66;4993525;28;20029;-76
2022/02/09 06:57:57;;;;;;;20.38;9.88;;;;;;;2.80;63.29;96317.91;5025141;28;20131;-77
2022/02/09 07:00:21;;;;;;;11.65;7.35;;;;;;;2.81;63.23;96314.28;5024911;28;20522;-77
2022/02/09 07:02:47;;;;;;;17.45;8.80;;;;;;;2.82;63.00;96315.13;5024869;28;20029;-77
2022/02/09 07:05:13;;;;;;;13.98;8.13;;;;;;;2.90;63.05;96307.47;5007998;28;20029;-76
2022/02/09 07:07:39;;;;;;;15.27;8.77;;;;;;;2.87;63.27;96304.22;5024825;28;20026;-76
2022/02/09 07:10:05;;;;;;;17.25;9.07;;;;;;;2.90;63.24;96311.94;5007999;28;20032;-78
2022/02/09 07:12:30;;;;;;;18.48;8.50;;;;;;;2.87;63.13;96313.00;5008130;28;20021;-76
2022/02/09 07:14:56;;;;;;;15.45;7.90;;;;;;;2.92;63.24;96316.19;5008389;28;20032;-77
2022/02/09 07:17:21;;;;;;;14.32;7.13;;;;;;;2.91;63.46;96309.19;5007937;28;20109;-77
2022/02/09 07:19:54;;;;;;;10.07;6.00;;;;;;;2.97;63.34;96316.72;5026100;28;20021;-79
2022/02/09 07:22:24;;;;;;;16.17;6.70;;;;;;;2.94;63.50;96319.56;5008977;28;20045;-79
2022/02/09 07:24:51;;;;;;;10.38;6.05;;;;;;;2.98;63.06;96314.91;5024856;28;20447;-76
2022/02/09 07:27:39;;;;;;;12.77;7.22;;;;;;;2.99;63.24;96316.59;5008285;28;20025;-78
2022/02/09 07:30:05;;;;;;;17.05;8.15;;;;;;;3.01;63.39;96320.00;5024261;28;20342;-77
2022/02/09 07:32:31;;;;;;;11.57;7.18;;;;;;;3.09;63.05;96311.50;5024449;28;20064;-79
2022/02/09 07:34:56;;;;;;;13.00;7.07;;;;;;;3.09;63.15;96320.28;5024589;28;20399;-77
2022/02/09 07:37:22;;;;;;;13.82;6.40;;;;;;;3.15;63.13;96321.66;5025565;28;20432;-76
2022/02/09 07:39:47;;;;;;;15.30;6.18;;;;;;;3.11;62.55;96322.00;5025703;28;20511;-78
2022/02/09 07:42:20;;;;;;;10.32;5.63;;;;;;;3.14;62.80;96337.69;5025600;28;20026;-78
2022/02/09 07:44:58;;;;;;;8.20;5.45;;;;;;;3.14;63.06;96319.13;5026114;28;20119;-79
2022/02/09 07:47:39;;;;;;;10.27;5.28;;;;;;;3.11;63.36;96328.16;5027248;28;20488;-77
2022/02/09 07:53:24;;;;;;;9.05;4.55;;;;;;;3.22;62.96;96332.69;5028362;28;20061;-79
2022/02/09 07:55:25;;;;;;;7.72;5.10;;;;;;;3.27;62.60;96330.56;5027661;28;20495;-77
2022/02/09 07:57:51;;;;;;;8.00;4.82;;;;;;;3.22;63.03;96340.66;5011830;28;20443;-79
2022/02/09 08:00:16;;;;;;;10.15;5.10;;;;;;;3.18;63.42;96333.84;5027481;28;20036;-79
2022/02/09 08:02:42;;;;;;;10.25;5.55;;;;;;;3.17;63.39;96333.00;5029225;28;20108;-76
2022/02/09 08:05:07;;;;;;;10.25;5.40;;;;;;;3.24;63.18;96328.09;5027948;28;20030;-76
2022/02/09 08:07:33;;;;;;;10.38;5.50;;;;;;;3.24;63.40;96336.06;5029006;28;20033;-81
2022/02/09 08:09:59;;;;;;;10.45;5.28;;;;;;;3.37;63.01;96329.91;5029243;28;20476;-79
2022/02/09 08:33:34;;;;;;;6.90;4.00;;;;;;;4.48;60.12;96312.06;5016811;28;20104;-77
2022/02/09 08:35:59;;;;;;;11.65;4.68;;;;;;;4.80;59.23;96319.34;5027295;28;20029;-77
2022/02/09 08:38:29;;;;;;;5.90;4.05;;;;;;;4.87;58.82;96310.94;5027406;28;20139;-76
2022/02/09 08:40:55;;;;;;;5.95;3.90;;;;;;;4.99;58.62;96307.31;5028829;28;20224;-78
2022/02/09 08:43:20;;;;;;;8.68;3.88;;;;;;;5.03;58.47;96307.91;5010629;28;20017;-76
2022/02/09 08:45:46;;;;;;;10.50;4.07;;;;;;;5.06;58.49;96324.44;5028809;28;20022;-76
2022/02/09 08:48:11;;;;;;;9.90;4.57;;;;;;;5.07;58.23;96299.56;5010674;28;20248;-76
2022/02/09 08:50:37;;;;;;;8.18;3.95;;;;;;;5.02;58.54;96311.53;5026858;28;20025;-78
2022/02/09 08:53:04;;;;;;;7.43;4.15;;;;;;;5.03;58.57;96324.69;5010574;28;20424;-76
2022/02/09 08:55:29;;;;;;;6.43;3.92;;;;;;;5.17;57.95;96317.47;5026988;28;20373;-77
2022/02/09 08:57:55;;;;;;;8.05;3.75;;;;;;;5.27;58.47;96321.06;5026906;28;20566;-77
2022/02/09 09:00:25;;;;;;;6.82;3.92;;;;;;;5.28;57.84;96328.09;5026344;28;20021;-77
2022/02/09 09:03:04;;;;;;;7.82;4.05;;;;;;;5.32;57.89;96320.69;5011518;28;20534;-77
2022/02/09 09:05:41;;;;;;;7.72;3.60;;;;;;;5.29;58.28;96321.78;5012227;28;20029;-78
2022/02/09 09:08:20;;;;;;;7.00;3.30;;;;;;;5.29;58.23;96320.94;5012111;28;20021;-78
2022/02/09 09:11:03;;;;;;;3.25;2.70;;;;;;;5.34;58.89;96325.91;5012410;28;20316;-77
2022/02/09 10:02:36;;;;;;;6.43;3.80;;;;;;;5.88;58.28;96318.06;5025956;28;20026;-79
2022/02/09 10:34:01;;;;;;;5.95;3.65;;;;;;;5.51;59.80;96303.28;5026658;28;20083;-77
2022/02/09 10:36:26;;;;;;;5.72;3.60;;;;;;;5.48;59.23;96299.03;5009142;28;20492;-77
2022/02/09 10:39:05;;;;;;;10.23;3.83;;;;;;;5.46;59.99;96308.13;5008757;28;20029;-77
2022/02/09 10:41:37;;;;;;;10.15;3.90;;;;;;;5.44;60.54;96309.09;5026908;28;20021;-78
2022/02/09 10:44:06;;;;;;;5.57;4.00;;;;;;;5.52;60.45;96308.47;5026135;28;20479;-80
2022/02/09 10:46:32;;;;;;;7.15;4.20;;;;;;;5.53;60.55;96310.16;5025553;28;20028;-77
2022/02/09 10:49:00;;;;;;;6.88;4.50;;;;;;;5.56;60.01;96315.22;5024710;28;20013;-79
2022/02/09 10:51:35;;;;;;;6.95;3.80;;;;;;;5.59;59.97;96310.63;4992842;28;20026;-79
2022/02/09 10:54:22;;;;;;;6.80;4.22;;;;;;;5.64;60.34;96306.63;5025037;28;20130;-78
2022/02/09 10:56:50;;;;;;;5.53;3.78;;;;;;;5.57;60.26;96311.63;5009938;28;20033;-76
2022/02/09 10:59:17;;;;;;;5.22;3.70;;;;;;;5.65;60.59;96310.13;5024601;28;20033;-80
2022/02/09 11:01:43;;;;;;;6.47;4.05;;;;;;;5.73;59.92;96314.81;5026319;28;20096;-77
2022/02/09 11:04:08;;;;;;;7.78;4.38;;;;;;;5.72;60.43;96310.47;5024891;28;20113;-78
2022/02/09 11:06:35;;;;;;;7.13;4.20;;;;;;;5.74;60.46;96305.88;5024678;28;20053;-78
2022/02/09 11:09:03;;;;;;;6.00;4.18;;;;;;;5.71;59.88;96306.97;5008371;28;20100;-77
2022/02/09 11:11:29;;;;;;;7.55;4.50;;;;;;;5.67;60.18;96310.84;5024736;28;20055;-78
2022/02/09 11:13:55;;;;;;;8.45;4.65;;;;;;;5.55;60.30;96302.91;5025011;28;20113;-78
2022/02/09 11:16:21;;;;;;;8.20;4.60;;;;;;;5.64;60.40;96298.63;5007884;28;20030;-77
2022/02/09 11:18:47;;;;;;;5.35;3.83;;;;;;;5.56;60.67;96303.75;5024461;28;20081;-78
2022/02/09 11:21:14;;;;;;;5.47;4.32;;;;;;;5.55;60.52;96302.91;5008387;28;20073;-77
2022/02/09 11:23:53;;;;;;;5.53;3.85;;;;;;;5.50;60.73;96309.53;5029828;28;20115;-78
2022/02/09 11:32:10;;;;;;;5.88;3.95;;;;;;;5.50;61.41;96310.41;5029877;28;20061;-77
2022/02/09 11:38:28;;;;;;;5.53;4.13;;;;;;;5.48;61.51;96299.03;5029807;28;20491;-78
2022/02/09 11:40:57;;;;;;;6.63;3.60;;;;;;;5.43;61.46;96298.56;5031647;28;20091;-77
2022/02/09 12:10:21;;;;;;;6.80;3.50;;;;;;;5.88;61.37;96283.44;5030492;28;20036;-77
2022/02/09 12:13:04;;;;;;;7.13;4.20;;;;;;;5.81;61.64;96278.63;5012831;28;20036;-77
2022/02/09 12:18:53;;;;;;;4.72;3.58;;;;;;;5.71;61.74;96295.50;5039905;28;20041;-76
2022/02/09 12:21:27;;;;;;;6.32;4.35;;;;;;;5.61;62.44;96285.56;5028923;28;20517;-78
2022/02/09 12:23:52;;;;;;;7.72;4.05;;;;;;;5.60;63.05;96304.31;5028905;28;20025;-77
2022/02/09 12:26:20;;;;;;;7.00;4.32;;;;;;;5.58;62.80;96291.16;5028924;28;20833;-77
2022/02/09 12:28:49;;;;;;;6.22;4.13;;;;;;;5.55;63.41;96302.91;5011567;28;20053;-76
2022/02/09 12:31:15;;;;;;;6.07;4.53;;;;;;;5.53;63.22;96288.03;5029145;28;20025;-77
2022/02/09 12:33:43;;;;;;;3.90;3.40;;;;;;;5.49;63.36;96287.44;5009698;28;20064;-77
2022/02/09 12:36:16;;;;;;;4.75;3.83;;;;;;;5.45;63.57;96296.63;5011396;28;20479;-76
2022/02/09 12:38:42;;;;;;;4.20;3.70;;;;;;;5.34;63.47;96288.69;5027410;28;20060;-79
2022/02/09 12:41:18;;;;;;;5.90;4.18;;;;;;;5.28;63.59;96313.94;5028509;28;20022;-78
2022/02/09 12:44:09;;;;;;;5.65;3.95;;;;;;;5.27;64.17;96314.91;5027223;28;20105;-78
2022/02/09 12:46:37;;;;;;;7.97;4.75;;;;;;;5.24;65.14;96320.47;5028402;28;20507;-77
2022/02/09 12:49:06;;;;;;;6.13;4.90;;;;;;;5.21;65.11;96310.09;5011103;28;20022;-77
2022/02/09 12:51:31;;;;;;;5.80;4.90;;;;;;;5.15;65.21;96306.09;5026752;28;20487;-79
2022/02/09 12:53:58;;;;;;;6.60;4.80;;;;;;;5.13;66.38;96298.22;5028470;28;20032;-79
2022/02/09 12:56:29;;;;;;;6.03;4.97;;;;;;;5.14;65.56;96277.81;5027374;28;20029;-76
2022/02/09 12:58:56;;;;;;;6.05;4.57;;;;;;;5.16;65.17;96276.72;5011195;28;20079;-78
2022/02/09 13:01:21;;;;;;;7.15;4.65;;;;;;;5.18;65.51;96293.41;5010679;28;20029;-76
2022/02/09 13:03:47;;;;;;;9.57;4.78;;;;;;;5.21;66.12;96294.94;5026777;28;20029;-78
2022/02/09 13:06:12;;;;;;;8.57;4.50;;;;;;;5.23;65.55;96300.16;5028368;28;20439;-77
2022/02/09 13:08:38;;;;;;;5.78;4.97;;;;;;;5.18;65.45;96297.84;5028002;28;20422;-78
2022/02/09 13:11:17;;;;;;;5.30;4.60;;;;;;;5.14;66.33;96288.44;5028170;28;20021;-77
2022/02/09 13:13:45;;;;;;;6.53;4.82;;;;;;;5.14;65.69;96293.75;5027983;28;20579;-78
2022/02/09 13:16:20;;;;;;;7.97;5.68;;;;;;;5.07;65.94;96283.63;5010670;28;20029;-78
2022/02/09 13:19:19;;;;;;;6.25;5.32;;;;;;;5.11;66.13;96299.31;5011372;28;20084;-78
2022/02/09 13:25:30;;;;;;;10.02;5.80;;;;;;;4.98;66.97;96294.97;5026672;28;20478;-77
2022/02/09 14:57:08;;;;;;;11.63;8.27;;;;;;;4.44;71.68;96340.69;5025727;28;20372;-79
2022/02/09 14:59:49;;;;;;;12.45;8.45;;;;;;;4.48;71.61;96345.75;5026714;28;20471;-78
2022/02/09 15:02:22;;;;;;;10.70;8.18;;;;;;;4.50;71.75;96349.97;5012260;28;20029;-77
2022/02/09 15:10:06;;;;;;;11.85;8.80;;;;;;;4.57;71.47;96332.63;5024666;28;20022;-80
2022/02/09 15:12:52;;;;;;;11.80;7.78;;;;;;;4.55;71.85;96326.56;5009434;28;20468;-77
2022/02/09 15:23:16;;;;;;;10.50;7.65;;;;;;;4.48;71.02;96329.81;5026023;28;20037;-77
2022/02/09 15:25:42;;;;;;;10.88;7.63;;;;;;;4.45;70.80;96328.22;5008388;28;20503;-77
2022/02/09 15:28:09;;;;;;;9.38;6.28;;;;;;;4.42;70.82;96333.78;5024531;28;20026;-80
2022/02/09 15:30:45;;;;;;;11.30;7.47;;;;;;;4.42;71.27;96336.44;5025995;28;20029;-76
2022/02/09 15:33:11;;;;;;;8.23;6.47;;;;;;;4.47;70.76;96336.06;5025723;28;20026;-76
2022/02/09 15:35:40;;;;;;;9.88;7.05;;;;;;;4.38;70.34;96329.66;5025700;28;20068;-76
2022/02/09 15:41:18;;;;;;;10.05;7.30;;;;;;;4.35;70.72;96343.19;5026059;28;20385;-77
2022/02/09 16:23:39;;;;;;;9.07;7.22;;;;;;;4.02;70.64;96391.56;5027864;28;20511;-77
2022/02/09 16:44:39;;;;;;;11.50;8.90;;;;;;;3.81;72.25;96413.41;5027654;28;20124;-77
2022/02/09 16:47:11;;;;;;;12.13;8.95;;;;;;;3.90;71.27;96416.34;5028694;28;20072;-78
2022/02/09 16:49:53;;;;;;;13.98;8.93;;;;;;;3.90;71.43;96422.47;4995983;28;20125;-76
2022/02/09 16:52:36;;;;;;;10.82;8.30;;;;;;;3.92;71.81;96419.72;5012848;28;20450;-77
2022/02/09 17:19:25;;;;;;;15.43;10.13;;;;;;;3.95;71.66;96438.94;5027353;28;20129;-76
2022/02/09 17:21:51;;;;;;;15.35;10.00;;;;;;;3.90;72.35;96441.06;5026306;28;20022;-79
2022/02/09 17:24:16;;;;;;;14.27;10.52;;;;;;;3.90;72.30;96448.19;5028010;28;20029;-77
2022/02/09 17:26:43;;;;;;;16.08;10.43;;;;;;;3.93;72.29;96455.94;5025934;28;20025;-75
2022/02/09 17:29:08;;;;;;;14.20;10.07;;;;;;;3.94;72.12;96454.97;5027935;28;20100;-76
2022/02/09 17:32:00;;;;;;;15.55;10.45;;;;;;;3.96;71.93;96463.69;5026387;28;20029;-76
2022/02/09 17:53:25;;;;;;;13.68;9.32;;;;;;;4.04;71.51;96471.94;5027811;28;20164;-78
2022/02/09 17:56:07;;;;;;;14.05;9.93;;;;;;;3.96;72.15;96490.22;5027133;28;20456;-77
2022/02/09 17:58:54;;;;;;;14.82;10.30;;;;;;;3.90;71.59;96480.06;5029086;28;20024;-76
2022/02/09 18:01:20;;;;;;;15.13;9.55;;;;;;;3.97;71.48;96480.47;5036756;28;20041;-77
2022/02/09 18:03:45;;;;;;;12.93;9.82;;;;;;;3.95;72.29;96483.19;5018495;28;20078;-76
2022/02/09 18:06:19;;;;;;;14.25;9.93;;;;;;;4.03;71.51;96486.16;5020450;28;20025;-76
2022/02/09 18:08:55;;;;;;;14.93;10.10;;;;;;;4.00;71.54;96486.38;5018817;28;20030;-76
2022/02/09 18:43:17;;;;;;;23.60;11.88;;;;;;;4.10;70.09;96496.34;5039316;28;20588;-76
2022/02/09 18:45:48;;;;;;;26.50;13.00;;;;;;;4.10;70.17;96506.97;5043181;28;20021;-81
2022/02/09 18:59:31;;;;;;;46.45;18.50;;;;;;;3.94;71.11;96508.06;5042362;28;20424;-79
2022/02/09 19:04:41;;;;;;;45.50;17.52;;;;;;;3.90;70.95;96506.59;5042363;28;20025;-78
2022/02/09 19:07:19;;;;;;;37.38;17.17;;;;;;;3.90;71.00;96515.38;5023238;28;20025;-78
2022/02/09 19:18:34;;;;;;;44.80;15.63;;;;;;;3.69;71.76;96515.94;5041264;28;20482;-76
2022/02/09 19:26:16;;;;;;;29.10;13.07;;;;;;;3.58;72.10;96510.53;5041074;28;20124;-78
2022/02/09 19:48:27;;;;;;;17.23;10.60;;;;;;;3.33;71.81;96539.63;5043356;28;20056;-79
2022/02/09 19:53:45;;;;;;;19.85;11.93;;;;;;;3.41;71.66;96543.53;5042074;28;20033;-79
2022/02/09 19:56:17;;;;;;;21.85;12.50;;;;;;;3.45;71.43;96539.75;5015384;28;20025;-78
2022/02/09 19:58:54;;;;;;;20.15;12.63;;;;;;;3.49;70.85;96540.34;5035114;28;20043;-79
2022/02/09 20:01:21;;;;;;;22.25;12.55;;;;;;;3.47;70.92;96543.13;5041052;28;20033;-77
2022/02/09 20:03:48;;;;;;;19.67;13.20;;;;;;;3.53;70.72;96542.69;5042211;28;20087;-80
2022/02/09 20:06:13;;;;;;;18.65;12.25;;;;;;;3.61;71.08;96538.66;5037763;28;20032;-79
2022/02/09 20:08:39;;;;;;;16.20;10.68;;;;;;;3.65;70.86;96548.97;5042457;28;20028;-78
2022/02/09 20:11:05;;;;;;;17.67;11.23;;;;;;;3.62;70.71;96541.22;5049738;28;20021;-80
2022/02/09 20:13:31;;;;;;;16.60;11.25;;;;;;;3.61;70.04;96538.66;5028538;28;20029;-79
2022/02/09 20:15:57;;;;;;;15.38;10.30;;;;;;;3.60;70.55;96540.47;5042468;28;20039;-79
2022/02/09 20:18:23;;;;;;;15.60;10.40;;;;;;;3.54;71.05;96544.41;5044402;28;20136;-77
2022/02/09 20:20:49;;;;;;;13.82;9.65;;;;;;;3.51;70.81;96552.56;5042858;28;20029;-78
2022/02/09 20:23:14;;;;;;;13.60;9.30;;;;;;;3.52;71.29;96550.75;5046148;28;20111;-78
2022/02/09 20:25:40;;;;;;;12.27;8.60;;;;;;;3.44;70.68;96554.78;5025391;28;20033;-77
2022/02/09 20:28:07;;;;;;;11.45;8.70;;;;;;;3.38;70.94;96549.06;5043782;28;20028;-78
2022/02/09 20:30:41;;;;;;;11.43;8.48;;;;;;;3.52;70.96;96558.72;5045245;28;20033;-77
2022/02/09 20:33:12;;;;;;;13.55;8.88;;;;;;;3.61;70.28;96555.41;5028611;28;20028;-78
2022/02/09 20:35:37;;;;;;;11.57;8.32;;;;;;;3.68;70.61;96559.38;5042047;28;20040;-77
2022/02/09 20:38:02;;;;;;;12.15;8.60;;;;;;;3.71;70.12;96560.94;5042735;28;20029;-77
2022/02/09 20:40:53;;;;;;;11.65;9.00;;;;;;;3.72;70.13;96562.66;5027265;28;20029;-78
2022/02/09 20:43:16;;;;;;;14.63;8.93;;;;;;;3.70;69.86;96559.25;5041807;28;20087;-77
2022/02/09 20:45:52;;;;;;;14.70;10.50;;;;;;;3.68;69.93;96558.50;5028381;28;20448;-78
2022/02/09 20:48:23;;;;;;;14.75;10.48;;;;;;;3.78;69.45;96564.88;5043846;28;20029;-78
2022/02/09 20:50:49;;;;;;;13.98;9.95;;;;;;;3.82;68.86;96554.91;5028602;28;20635;-78
2022/02/09 20:53:15;;;;;;;16.08;11.35;;;;;;;3.83;69.51;96564.56;5044626;28;20025;-78
2022/02/09 20:55:43;;;;;;;17.05;10.98;;;;;;;3.79;69.24;96568.41;5038190;28;20045;-77
2022/02/09 20:58:09;;;;;;;15.18;10.02;;;;;;;3.78;69.46;96556.94;5044602;28;20037;-77
2022/02/09 21:05:45;;;;;;;13.65;9.77;;;;;;;3.74;69.67;96570.50;5042199;28;20029;-78
2022/02/09 21:13:12;;;;;;;51.65;25.38;;;;;;;3.80;68.99;96564.78;5056608;28;20074;-77
2022/02/09 21:29:31;;;;;;;28.48;16.33;;;;;;;3.49;69.77;96559.78;5043352;28;20029;-78
2022/02/09 21:45:14;;;;;;;29.23;16.92;;;;;;;3.50;69.85;96569.44;5036901;28;20025;-79
2022/02/09 21:58:10;;;;;;;21.73;12.98;;;;;;;3.32;70.50;96574.19;5037120;28;20463;-77
2022/02/09 22:19:20;;;;;;;20.38;12.13;;;;;;;3.03;69.56;96582.28;5043006;28;20501;-79
2022/02/09 22:45:59;;;;;;;33.72;18.40;;;;;;;1.88;73.45;96561.25;5043219;28;20179;-79
2022/02/09 22:54:25;;;;;;;34.42;18.95;;;;;;;1.70;73.79;96566.75;5043851;28;20125;-79
2022/02/09 22:56:28;;;;;;;35.38;18.77;;;;;;;1.59;73.91;96559.47;5044699;28;20047;-78
2022/02/09 22:58:55;;;;;;;33.42;20.23;;;;;;;1.60;74.73;96564.66;5043400;28;20033;-79
2022/02/09 23:01:33;;;;;;;34.45;20.05;;;;;;;1.60;74.32;96556.72;5040605;28;20120;-79
2022/02/09 23:07:13;;;;;;;35.25;19.63;;;;;;;1.62;72.99;96550.47;5032127;28;20057;-79
2022/02/09 23:12:15;;;;;;;35.53;20.17;;;;;;;1.67;72.51;96546.63;5041779;28;20025;-79
2022/02/09 23:20:25;;;;;;;33.00;19.50;;;;;;;1.67;72.85;96536.06;5025269;28;20135;-78
